Time;durP1;ratioP1;P1;durP2;ratioP2;P2;SDS_P1;SDS_P2;PMS_P1;PMS_P2;Temp;Humidity;BMP_temperature;BMP_pressure;BME280_temperature;BME280_humidity;BME280_pressure;Samples;Min_cycle;Max_cycle;Signal;HPM_P1;HPM_P2
2024/02/07 05:57:00;;;;;;;5.32;0.40;;;;;;;;;;4980562;27;2014892;-65
2024/02/07 05:59:27;;;;;;;6.18;1.05;;;;;;;;;;5057063;28;20064;-65
2024/02/07 06:01:54;;;;;;;4.47;1.30;;;;;;;;;;5067663;28;20233;-66
2024/02/07 06:04:21;;;;;;;1.13;0.55;;;;;;;;;;5070771;28;20056;-66
2024/02/07 06:06:51;;;;;;;4.00;0.60;;;;;;;;;;5086026;28;20138;-66
2024/02/07 06:09:18;;;;;;;2.97;0.68;;;;;;;;;;5092240;28;20044;-66
2024/02/07 06:11:46;;;;;;;3.42;0.63;;;;;;;;;;5090895;28;20085;-68
2024/02/07 06:14:15;;;;;;;2.40;0.65;;;;;;;;;;5077894;28;20250;-66
2024/02/07 06:16:44;;;;;;;1.35;0.50;;;;;;;;;;5039510;28;20163;-66
2024/02/07 06:19:11;;;;;;;4.38;0.60;;;;;;;;;;5069797;28;20048;-66
2024/02/07 06:21:38;;;;;;;8.05;0.90;;;;;;;;;;5075250;28;20173;-66
2024/02/07 06:24:06;;;;;;;1.67;0.55;;;;;;;;;;5068507;28;20089;-66
2024/02/07 06:26:33;;;;;;;7.95;2.00;;;;;;;;;;5076432;28;20044;-66
2024/02/07 06:28:59;;;;;;;6.32;2.35;;;;;;;;;;5076122;28;20171;-66
2024/02/07 06:31:28;;;;;;;4.60;0.85;;;;;;;;;;5089197;28;20055;-66
2024/02/07 06:33:54;;;;;;;6.65;0.80;;;;;;;;;;5059167;28;20044;-67
2024/02/07 06:36:24;;;;;;;7.45;1.00;;;;;;;;;;5056258;28;20079;-66
2024/02/07 06:38:51;;;;;;;1.80;0.50;;;;;;;;;;5066873;28;20371;-66
2024/02/07 06:41:17;;;;;;;4.30;0.65;;;;;;;;;;5074592;28;20130;-66
2024/02/07 06:43:47;;;;;;;2.70;0.60;;;;;;;;;;5072117;28;20048;-66
2024/02/07 06:46:14;;;;;;;5.68;1.00;;;;;;;;;;5068898;28;20052;-66
2024/02/07 06:48:42;;;;;;;3.85;1.00;;;;;;;;;;5097764;28;20070;-65
2024/02/07 06:51:09;;;;;;;2.47;0.85;;;;;;;;;;5091366;28;20048;-65
2024/02/07 06:53:35;;;;;;;2.13;0.50;;;;;;;;;;5089831;28;20052;-65
2024/02/07 06:56:02;;;;;;;1.65;0.40;;;;;;;;;;5068042;28;20135;-66
2024/02/07 06:58:32;;;;;;;4.40;0.80;;;;;;;;;;5083342;28;20051;-65
2024/02/07 07:00:59;;;;;;;2.17;0.73;;;;;;;;;;5095212;28;20113;-66
2024/02/07 07:03:26;;;;;;;2.95;0.73;;;;;;;;;;5090784;28;20044;-65
2024/02/07 07:05:54;;;;;;;1.10;0.47;;;;;;;;;;5084447;28;20509;-65
2024/02/07 07:08:24;;;;;;;3.15;0.55;;;;;;;;;;5078345;28;20048;-67
2024/02/07 07:10:51;;;;;;;2.47;0.73;;;;;;;;;;5085974;28;20056;-65
2024/02/07 07:13:27;;;;;;;4.85;1.10;;;;;;;;;;5072792;28;20052;-65
2024/02/07 07:15:54;;;;;;;5.50;1.00;;;;;;;;;;5021197;28;20088;-65
2024/02/07 07:18:20;;;;;;;2.85;0.80;;;;;;;;;;5076720;28;20062;-65
2024/02/07 07:20:47;;;;;;;5.18;0.93;;;;;;;;;;5076145;28;20117;-65
2024/02/07 07:23:15;;;;;;;2.65;0.70;;;;;;;;;;5078528;28;20059;-65
2024/02/07 07:25:46;;;;;;;3.65;1.00;;;;;;;;;;5015998;28;20128;-67
2024/02/07 07:28:15;;;;;;;2.92;0.70;;;;;;;;;;5042976;28;20066;-65
2024/02/07 07:30:45;;;;;;;6.53;0.88;;;;;;;;;;5086382;28;20166;-64
2024/02/07 07:33:12;;;;;;;2.05;0.80;;;;;;;;;;5077542;28;20051;-64
2024/02/07 07:35:38;;;;;;;4.25;1.10;;;;;;;;;;5052357;28;20131;-64
2024/02/07 07:38:06;;;;;;;6.40;0.77;;;;;;;;;;5071391;28;20052;-64
2024/02/07 07:40:37;;;;;;;4.57;0.57;;;;;;;;;;5077596;28;20184;-64
2024/02/07 07:43:07;;;;;;;0.85;0.43;;;;;;;;;;5075892;28;20048;-67
2024/02/07 07:45:33;;;;;;;6.80;1.02;;;;;;;;;;5003311;28;20054;-66
2024/02/07 07:48:00;;;;;;;7.78;1.10;;;;;;;;;;5058218;28;20134;-64
2024/02/07 07:50:27;;;;;;;2.47;0.95;;;;;;;;;;5077301;28;20048;-64
2024/02/07 07:52:54;;;;;;;4.30;1.55;;;;;;;;;;5077464;28;20051;-64
2024/02/07 07:55:23;;;;;;;2.03;0.95;;;;;;;;;;5063529;28;20524;-64
2024/02/07 07:57:52;;;;;;;5.22;1.20;;;;;;;;;;5070092;28;20159;-65
2024/02/07 08:00:21;;;;;;;6.00;1.40;;;;;;;;;;5076428;28;20122;-65
2024/02/07 08:02:58;;;;;;;4.75;0.98;;;;;;;;;;5075485;28;20063;-68
2024/02/07 08:05:25;;;;;;;1.75;0.77;;;;;;;;;;5008189;28;20081;-65
2024/02/07 08:07:55;;;;;;;8.00;1.55;;;;;;;;;;5024380;28;20142;-65
2024/02/07 08:10:23;;;;;;;5.35;0.85;;;;;;;;;;5077422;28;20055;-65
2024/02/07 08:12:55;;;;;;;7.50;1.17;;;;;;;;;;5078625;28;20054;-65
2024/02/07 08:15:23;;;;;;;5.60;1.25;;;;;;;;;;5050097;28;20139;-65
2024/02/07 08:17:53;;;;;;;4.75;1.00;;;;;;;;;;5052466;28;20044;-66
2024/02/07 08:20:22;;;;;;;4.13;1.00;;;;;;;;;;5065292;28;20048;-65
2024/02/07 08:22:48;;;;;;;10.70;1.73;;;;;;;;;;5076804;28;20048;-65
2024/02/07 08:25:15;;;;;;;14.00;4.80;;;;;;;;;;5074326;28;20044;-64
2024/02/07 08:27:42;;;;;;;12.00;3.97;;;;;;;;;;5071318;28;20221;-64
2024/02/07 08:30:11;;;;;;;7.22;1.88;;;;;;;;;;5067584;28;20064;-65
2024/02/07 08:32:41;;;;;;;14.18;2.15;;;;;;;;;;5067117;28;20055;-66
2024/02/07 08:35:09;;;;;;;5.75;1.23;;;;;;;;;;5075126;28;20055;-64
2024/02/07 08:37:36;;;;;;;5.90;0.77;;;;;;;;;;5040461;28;20059;-64
2024/02/07 08:40:04;;;;;;;4.60;0.93;;;;;;;;;;5070110;28;20056;-65
2024/02/07 08:42:34;;;;;;;;;;;;;;;;;;5076849;28;20083;-66
2024/02/07 08:45:01;;;;;;;4.97;1.10;;;;;;;;;;5077549;28;20535;-66
2024/02/07 08:47:28;;;;;;;2.65;0.88;;;;;;;;;;5065773;28;20056;-65
2024/02/07 08:49:57;;;;;;;3.95;0.85;;;;;;;;;;5075256;28;20060;-66
2024/02/07 08:52:24;;;;;;;5.85;1.00;;;;;;;;;;5078138;28;20083;-65
2024/02/07 08:54:50;;;;;;;5.43;1.27;;;;;;;;;;5075604;28;20048;-66
2024/02/07 08:57:17;;;;;;;3.58;0.85;;;;;;;;;;5071792;28;20048;-64
2024/02/07 08:59:50;;;;;;;4.82;1.00;;;;;;;;;;5069319;28;20063;-65
2024/02/07 09:02:19;;;;;;;3.38;0.82;;;;;;;;;;5074460;28;20058;-64
2024/02/07 09:04:48;;;;;;;4.80;0.90;;;;;;;;;;5075048;28;20105;-64
2024/02/07 09:07:16;;;;;;;3.55;1.13;;;;;;;;;;5033866;28;20074;-66
2024/02/07 09:09:47;;;;;;;2.97;0.63;;;;;;;;;;5067211;28;20055;-65
2024/02/07 09:12:14;;;;;;;7.93;1.10;;;;;;;;;;5072103;28;20055;-64
2024/02/07 09:14:41;;;;;;;7.85;1.30;;;;;;;;;;5077700;28;20151;-64
2024/02/07 09:17:08;;;;;;;16.50;6.35;;;;;;;;;;5064964;28;20050;-64
2024/02/07 09:19:38;;;;;;;6.20;2.47;;;;;;;;;;5075534;28;20066;-65
2024/02/07 09:22:07;;;;;;;8.20;1.85;;;;;;;;;;5072842;28;20066;-64
2024/02/07 09:24:35;;;;;;;5.18;1.45;;;;;;;;;;5075316;28;20044;-65
2024/02/07 09:27:02;;;;;;;4.85;1.15;;;;;;;;;;5046753;28;20162;-64
2024/02/07 09:29:33;;;;;;;5.90;1.13;;;;;;;;;;5073159;28;20087;-64
2024/02/07 09:32:03;;;;;;;3.55;1.08;;;;;;;;;;5060648;28;20045;-67
2024/02/07 09:34:30;;;;;;;4.80;1.17;;;;;;;;;;5074089;28;20051;-67
2024/02/07 09:36:56;;;;;;;8.18;1.30;;;;;;;;;;5042055;28;20067;-67
2024/02/07 09:39:23;;;;;;;5.40;1.15;;;;;;;;;;5071602;28;20048;-66
2024/02/07 09:42:00;;;;;;;8.45;1.30;;;;;;;;;;5062268;28;20192;-65
2024/02/07 09:44:35;;;;;;;8.57;1.27;;;;;;;;;;5068845;28;20063;-66
2024/02/07 09:47:02;;;;;;;8.27;1.38;;;;;;;;;;5052810;28;20055;-65
2024/02/07 09:49:33;;;;;;;4.25;1.00;;;;;;;;;;5090920;28;20048;-65
2024/02/07 09:52:04;;;;;;;5.82;1.20;;;;;;;;;;5070010;28;20059;-65
2024/02/07 09:54:34;;;;;;;11.35;3.90;;;;;;;;;;5067571;28;20063;-66
2024/02/07 09:57:02;;;;;;;13.45;3.72;;;;;;;;;;5059692;28;20144;-65
2024/02/07 09:59:30;;;;;;;;;;;;;;;;;;5078345;28;20424;-64
2024/02/07 10:01:56;;;;;;;8.90;1.88;;;;;;;;;;5069623;28;19931;-65
2024/02/07 10:04:26;;;;;;;4.53;1.30;;;;;;;;;;5066855;28;20215;-66
2024/02/07 10:06:55;;;;;;;7.72;1.70;;;;;;;;;;5039055;28;20058;-66
2024/02/07 10:09:22;;;;;;;5.70;0.88;;;;;;;;;;5080190;28;20051;-66
2024/02/07 10:11:51;;;;;;;8.17;1.83;;;;;;;;;;5072831;28;20052;-68
2024/02/07 10:14:23;;;;;;;7.82;1.25;;;;;;;;;;5072351;28;20052;-67
2024/02/07 10:17:04;;;;;;;7.80;1.65;;;;;;;;;;5029876;28;20083;-66
2024/02/07 10:19:32;;;;;;;9.07;1.40;;;;;;;;;;5062028;28;20052;-66
2024/02/07 10:22:25;;;;;;;3.88;1.27;;;;;;;;;;5073354;28;20071;-65
2024/02/07 10:25:23;;;;;;;10.93;1.70;;;;;;;;;;5071481;28;20082;-67
2024/02/07 10:28:15;;;;;;;2.42;1.00;;;;;;;;;;5015665;28;20043;-66
2024/02/07 10:30:45;;;;;;;8.23;1.38;;;;;;;;;;5074935;28;20055;-65
2024/02/07 10:33:19;;;;;;;4.30;1.25;;;;;;;;;;5093443;28;20245;-65
2024/02/07 10:35:59;;;;;;;7.40;1.58;;;;;;;;;;5065216;28;20056;-66
2024/02/07 10:38:29;;;;;;;6.20;1.35;;;;;;;;;;5052575;28;20147;-66
2024/02/07 10:40:56;;;;;;;5.30;1.40;;;;;;;;;;5075832;28;20052;-65
2024/02/07 10:43:27;;;;;;;5.90;1.30;;;;;;;;;;5078168;28;20155;-65
2024/02/07 10:46:07;;;;;;;6.32;1.20;;;;;;;;;;5067360;28;20269;-65
2024/02/07 10:48:36;;;;;;;5.10;1.42;;;;;;;;;;5039066;28;20118;-67
2024/02/07 10:51:03;;;;;;;9.82;1.52;;;;;;;;;;5076535;28;20137;-67
2024/02/07 10:53:32;;;;;;;11.40;1.95;;;;;;;;;;5075959;28;20148;-67
2024/02/07 10:56:01;;;;;;;8.05;1.65;;;;;;;;;;5056692;28;20135;-66
2024/02/07 10:58:29;;;;;;;11.40;2.08;;;;;;;;;;5064945;28;20059;-67
2024/02/07 11:00:58;;;;;;;9.32;1.65;;;;;;;;;;5076821;28;20066;-66
2024/02/07 11:03:29;;;;;;;8.52;1.52;;;;;;;;;;5077332;28;20173;-67
2024/02/07 11:05:57;;;;;;;13.90;1.67;;;;;;;;;;5056702;28;20060;-67
2024/02/07 11:08:26;;;;;;;5.35;1.38;;;;;;;;;;5050553;28;20083;-68
2024/02/07 11:10:56;;;;;;;7.45;1.48;;;;;;;;;;5079609;28;20141;-67
2024/02/07 11:13:27;;;;;;;7.63;1.30;;;;;;;;;;5080161;28;20056;-67
2024/02/07 11:15:59;;;;;;;12.52;1.75;;;;;;;;;;5073127;28;20139;-67
2024/02/07 11:18:31;;;;;;;6.72;1.40;;;;;;;;;;5076672;28;20059;-67
2024/02/07 11:20:59;;;;;;;8.70;1.52;;;;;;;;;;5072736;28;20083;-66
2024/02/07 11:23:31;;;;;;;7.23;1.50;;;;;;;;;;5077926;28;20134;-65
2024/02/07 11:25:59;;;;;;;5.40;1.25;;;;;;;;;;5078179;28;20112;-65
2024/02/07 11:28:36;;;;;;;7.50;1.45;;;;;;;;;;5060508;28;20106;-68
2024/02/07 11:31:10;;;;;;;8.38;1.23;;;;;;;;;;5060432;28;20051;-65
2024/02/07 11:33:43;;;;;;;7.63;1.13;;;;;;;;;;5064767;28;20059;-66
2024/02/07 11:36:16;;;;;;;8.90;1.15;;;;;;;;;;5051782;28;20046;-65
2024/02/07 11:38:50;;;;;;;7.47;1.27;;;;;;;;;;5071421;28;20083;-65
2024/02/07 11:41:19;;;;;;;8.70;1.10;;;;;;;;;;5067592;28;20123;-65
2024/02/07 11:43:47;;;;;;;10.07;1.58;;;;;;;;;;5083964;28;20260;-66
2024/02/07 11:46:21;;;;;;;6.97;1.15;;;;;;;;;;5059555;28;20049;-65
2024/02/07 11:48:53;;;;;;;3.53;0.95;;;;;;;;;;5037864;28;20060;-65
2024/02/07 11:51:22;;;;;;;6.63;1.40;;;;;;;;;;5048210;28;20044;-65
2024/02/07 11:53:49;;;;;;;7.55;1.48;;;;;;;;;;5053237;28;20055;-65
2024/02/07 11:56:22;;;;;;;5.32;1.00;;;;;;;;;;5026788;28;20060;-64
2024/02/07 11:58:52;;;;;;;10.38;1.20;;;;;;;;;;5030989;28;20047;-65
2024/02/07 12:01:19;;;;;;;4.35;1.13;;;;;;;;;;5079252;28;20143;-65
2024/02/07 12:03:56;;;;;;;5.88;1.10;;;;;;;;;;5076514;28;20048;-66
2024/02/07 12:06:25;;;;;;;9.13;1.10;;;;;;;;;;5078130;28;20106;-65
2024/02/07 12:08:55;;;;;;;5.55;1.17;;;;;;;;;;5022782;28;20143;-65
2024/02/07 12:11:22;;;;;;;9.75;1.30;;;;;;;;;;5075992;28;20063;-65
2024/02/07 12:13:50;;;;;;;16.40;2.05;;;;;;;;;;5080045;28;20059;-65
2024/02/07 12:16:19;;;;;;;5.45;1.10;;;;;;;;;;5078166;28;20067;-66
2024/02/07 12:18:45;;;;;;;5.88;1.05;;;;;;;;;;5006880;28;20048;-66
2024/02/07 12:21:17;;;;;;;9.73;1.20;;;;;;;;;;5074125;28;20052;-66
2024/02/07 12:23:43;;;;;;;6.32;1.13;;;;;;;;;;5066185;28;20367;-66
2024/02/07 12:26:14;;;;;;;5.70;1.05;;;;;;;;;;5070911;28;20056;-66
2024/02/07 12:28:41;;;;;;;8.52;1.25;;;;;;;;;;5041541;28;20052;-65
2024/02/07 12:31:08;;;;;;;6.63;1.30;;;;;;;;;;5073719;28;20056;-66
2024/02/07 12:33:37;;;;;;;9.13;1.08;;;;;;;;;;5070233;27;20366;-66
2024/02/07 12:36:12;;;;;;;12.02;1.20;;;;;;;;;;5065694;28;20048;-65
2024/02/07 12:38:43;;;;;;;12.02;1.38;;;;;;;;;;5056906;28;20122;-66
2024/02/07 12:41:09;;;;;;;11.18;0.95;;;;;;;;;;5083010;28;20130;-66
2024/02/07 12:43:38;;;;;;;7.55;0.98;;;;;;;;;;5069833;28;20167;-66
2024/02/07 12:46:09;;;;;;;8.05;1.23;;;;;;;;;;5075711;28;20052;-67
2024/02/07 12:48:36;;;;;;;19.98;1.58;;;;;;;;;;4985224;28;20056;-65
2024/02/07 12:51:04;;;;;;;6.85;1.17;;;;;;;;;;5061923;28;20071;-65
2024/02/07 12:53:32;;;;;;;6.47;1.00;;;;;;;;;;5071717;28;20056;-66
2024/02/07 12:56:02;;;;;;;15.52;1.30;;;;;;;;;;5073598;28;20313;-65
2024/02/07 12:58:29;;;;;;;16.55;1.35;;;;;;;;;;5064016;28;20148;-65
2024/02/07 13:01:05;;;;;;;13.50;1.67;;;;;;;;;;5082136;28;20083;-65
2024/02/07 13:03:33;;;;;;;10.68;1.45;;;;;;;;;;5071289;28;20083;-65
2024/02/07 13:05:59;;;;;;;9.40;1.00;;;;;;;;;;5076295;28;20066;-66
2024/02/07 13:08:26;;;;;;;10.48;1.38;;;;;;;;;;5055082;28;20059;-66
2024/02/07 13:10:55;;;;;;;11.07;1.25;;;;;;;;;;5075588;28;20056;-66
2024/02/07 13:13:23;;;;;;;14.70;1.38;;;;;;;;;;5066768;28;20044;-66
2024/02/07 13:15:52;;;;;;;6.38;1.00;;;;;;;;;;5074524;28;20295;-65
2024/02/07 13:18:22;;;;;;;11.85;1.17;;;;;;;;;;5056094;28;20076;-66
2024/02/07 13:20:51;;;;;;;7.13;1.08;;;;;;;;;;5069217;28;20060;-65
2024/02/07 13:23:26;;;;;;;8.55;0.82;;;;;;;;;;5071607;28;20136;-66
2024/02/07 13:25:53;;;;;;;7.20;1.20;;;;;;;;;;5092283;28;20059;-66
2024/02/07 13:28:19;;;;;;;6.63;1.23;;;;;;;;;;4953710;28;20070;-66
2024/02/07 13:30:48;;;;;;;6.88;0.90;;;;;;;;;;5066068;28;20148;-66
2024/02/07 13:33:17;;;;;;;6.15;1.10;;;;;;;;;;5069797;28;20043;-67
2024/02/07 13:35:47;;;;;;;4.50;1.17;;;;;;;;;;5073302;28;20055;-66
2024/02/07 13:38:13;;;;;;;10.75;1.50;;;;;;;;;;5030956;28;20061;-67
2024/02/07 13:40:41;;;;;;;6.78;0.88;;;;;;;;;;5072958;28;20076;-67
2024/02/07 13:43:08;;;;;;;9.00;1.00;;;;;;;;;;5066232;28;20124;-65
2024/02/07 13:45:34;;;;;;;8.60;1.60;;;;;;;;;;5072728;28;20203;-65
2024/02/07 13:48:14;;;;;;;9.25;1.15;;;;;;;;;;5014979;28;20138;-66
2024/02/07 13:50:48;;;;;;;6.53;0.90;;;;;;;;;;5047040;28;20048;-65
2024/02/07 13:53:22;;;;;;;9.00;2.08;;;;;;;;;;5015627;28;20064;-67
2024/02/07 13:55:50;;;;;;;8.70;1.15;;;;;;;;;;5021370;28;20115;-67
2024/02/07 13:58:18;;;;;;;6.78;1.02;;;;;;;;;;5013462;28;20057;-67
2024/02/07 14:00:48;;;;;;;9.80;1.25;;;;;;;;;;5074244;28;20056;-66
2024/02/07 14:03:24;;;;;;;3.97;0.70;;;;;;;;;;5091179;28;20113;-67
2024/02/07 14:05:55;;;;;;;9.55;1.10;;;;;;;;;;5075182;28;20146;-66
2024/02/07 14:08:24;;;;;;;7.00;1.05;;;;;;;;;;5068413;28;20055;-66
2024/02/07 14:10:51;;;;;;;9.82;1.35;;;;;;;;;;5074048;28;20063;-67
2024/02/07 14:13:18;;;;;;;12.02;0.93;;;;;;;;;;5074725;28;20052;-66
2024/02/07 14:15:45;;;;;;;6.57;0.65;;;;;;;;;;5070991;28;20059;-66
2024/02/07 14:18:12;;;;;;;4.57;0.88;;;;;;;;;;5074237;28;20062;-65
2024/02/07 14:20:41;;;;;;;2.45;0.65;;;;;;;;;;5063965;28;20049;-66
2024/02/07 14:23:08;;;;;;;10.30;0.95;;;;;;;;;;5078641;28;20094;-65
2024/02/07 14:25:41;;;;;;;10.45;1.10;;;;;;;;;;5074363;28;20139;-67
2024/02/07 14:28:08;;;;;;;5.65;0.80;;;;;;;;;;5024965;28;20057;-68
2024/02/07 14:30:42;;;;;;;9.23;1.20;;;;;;;;;;5051317;28;20052;-66
2024/02/07 14:33:11;;;;;;;6.03;1.20;;;;;;;;;;5079177;28;20048;-65
2024/02/07 14:35:37;;;;;;;;;;;;;;;;;;5083653;28;20151;-66
2024/02/07 14:38:07;;;;;;;9.07;1.15;;;;;;;;;;5046774;28;19923;-66
2024/02/07 14:40:34;;;;;;;4.20;0.95;;;;;;;;;;5074052;28;20051;-66
2024/02/07 14:43:02;;;;;;;7.47;1.20;;;;;;;;;;5071730;28;20063;-66
2024/02/07 14:45:31;;;;;;;6.75;1.15;;;;;;;;;;5074708;28;20040;-66
2024/02/07 14:48:00;;;;;;;6.95;0.90;;;;;;;;;;5056566;28;20072;-65
2024/02/07 14:50:27;;;;;;;12.27;2.00;;;;;;;;;;5077274;28;20047;-65
2024/02/07 14:52:59;;;;;;;4.88;0.93;;;;;;;;;;5077737;28;20051;-66
2024/02/07 14:55:33;;;;;;;8.95;1.40;;;;;;;;;;5070569;28;20060;-67
2024/02/07 14:58:00;;;;;;;7.45;1.20;;;;;;;;;;5011513;28;20063;-65
2024/02/07 15:00:29;;;;;;;4.70;0.68;;;;;;;;;;5072653;28;20070;-66
2024/02/07 15:02:58;;;;;;;;;;;;;;;;;;5080469;28;20051;-65
2024/02/07 15:05:29;;;;;;;8.30;0.93;;;;;;;;;;5074367;28;19955;-65
2024/02/07 15:07:57;;;;;;;7.88;0.82;;;;;;;;;;5078392;28;20072;-65
2024/02/07 15:10:31;;;;;;;9.90;1.08;;;;;;;;;;5074498;28;20056;-65
2024/02/07 15:12:59;;;;;;;5.30;0.90;;;;;;;;;;5075241;28;20059;-66
2024/02/07 15:15:26;;;;;;;;;;;;;;;;;;5074433;28;20048;-66
2024/02/07 15:17:57;;;;;;;4.05;1.00;;;;;;;;;;5081610;28;19923;-65
2024/02/07 15:20:23;;;;;;;3.83;0.68;;;;;;;;;;5058847;28;20143;-66
2024/02/07 15:22:52;;;;;;;11.27;1.60;;;;;;;;;;5075052;28;20050;-67
2024/02/07 15:25:22;;;;;;;10.38;1.10;;;;;;;;;;5058379;28;20058;-65
2024/02/07 15:27:53;;;;;;;9.60;1.48;;;;;;;;;;5046661;28;20052;-65
2024/02/07 15:30:23;;;;;;;9.63;1.30;;;;;;;;;;5043501;28;20052;-65
2024/02/07 15:32:50;;;;;;;14.10;2.03;;;;;;;;;;5048330;28;20052;-65
2024/02/07 15:35:21;;;;;;;9.63;1.25;;;;;;;;;;5044487;28;20045;-65
2024/02/07 15:38:02;;;;;;;12.27;1.42;;;;;;;;;;5016195;28;20053;-65
2024/02/07 15:40:29;;;;;;;5.60;0.95;;;;;;;;;;5034992;28;20059;-66
2024/02/07 15:42:59;;;;;;;9.35;0.75;;;;;;;;;;5060253;28;20060;-66
2024/02/07 15:45:26;;;;;;;4.55;0.88;;;;;;;;;;5068118;28;20282;-66
2024/02/07 15:47:53;;;;;;;10.13;1.52;;;;;;;;;;5065595;28;20055;-66
2024/02/07 15:50:20;;;;;;;8.73;1.00;;;;;;;;;;5079072;28;20075;-66
2024/02/07 15:52:52;;;;;;;6.45;0.85;;;;;;;;;;5070909;28;20067;-66
2024/02/07 15:55:21;;;;;;;3.63;0.82;;;;;;;;;;5069737;28;20060;-68
2024/02/07 15:57:48;;;;;;;6.80;1.13;;;;;;;;;;5055118;27;20059;-66
2024/02/07 16:00:18;;;;;;;11.85;1.48;;;;;;;;;;5058890;28;20067;-65
2024/02/07 16:02:45;;;;;;;7.40;1.38;;;;;;;;;;5076997;28;20064;-66
2024/02/07 16:05:16;;;;;;;12.70;1.48;;;;;;;;;;5077390;28;20047;-66
2024/02/07 16:07:46;;;;;;;7.07;1.08;;;;;;;;;;5044712;28;20059;-66
2024/02/07 16:10:13;;;;;;;8.02;1.20;;;;;;;;;;5074252;28;20105;-66
2024/02/07 16:12:42;;;;;;;8.43;1.30;;;;;;;;;;5093112;28;20065;-66
2024/02/07 16:15:10;;;;;;;6.10;1.17;;;;;;;;;;5076897;28;20056;-66
2024/02/07 16:17:38;;;;;;;7.60;1.10;;;;;;;;;;5070025;28;20261;-66
2024/02/07 16:20:11;;;;;;;9.20;1.50;;;;;;;;;;5029064;28;20330;-66
2024/02/07 16:22:37;;;;;;;7.85;1.08;;;;;;;;;;5058835;28;20059;-66
2024/02/07 16:25:05;;;;;;;13.63;1.98;;;;;;;;;;5056783;28;20059;-65
2024/02/07 16:27:32;;;;;;;14.43;1.52;;;;;;;;;;5036027;28;20036;-66
2024/02/07 16:30:00;;;;;;;7.40;1.10;;;;;;;;;;5018889;28;20139;-66
2024/02/07 16:32:27;;;;;;;9.18;1.40;;;;;;;;;;5076631;28;20071;-65
2024/02/07 16:35:06;;;;;;;6.50;1.27;;;;;;;;;;5077852;28;20058;-66
2024/02/07 16:37:41;;;;;;;11.32;1.40;;;;;;;;;;5061820;28;20070;-66
2024/02/07 16:40:08;;;;;;;14.57;1.45;;;;;;;;;;5053176;28;20064;-66
2024/02/07 16:42:35;;;;;;;6.10;1.58;;;;;;;;;;5073830;28;20062;-67
2024/02/07 16:45:08;;;;;;;15.68;1.40;;;;;;;;;;5090011;28;20149;-65
2024/02/07 16:47:37;;;;;;;8.88;1.33;;;;;;;;;;5053703;28;20044;-66
2024/02/07 16:50:07;;;;;;;5.68;1.30;;;;;;;;;;5002802;28;20051;-66
2024/02/07 16:52:34;;;;;;;10.27;1.50;;;;;;;;;;5076389;28;20040;-66
2024/02/07 16:55:01;;;;;;;6.35;1.42;;;;;;;;;;5075190;28;20056;-67
2024/02/07 16:57:27;;;;;;;7.93;1.20;;;;;;;;;;5072527;28;20043;-66
2024/02/07 16:59:54;;;;;;;7.20;1.52;;;;;;;;;;5001153;28;20074;-67
2024/02/07 17:02:21;;;;;;;11.98;1.58;;;;;;;;;;5055183;28;20080;-67
2024/02/07 17:04:48;;;;;;;11.75;1.77;;;;;;;;;;5041292;28;20153;-65
2024/02/07 17:07:22;;;;;;;11.13;1.50;;;;;;;;;;5048944;28;20130;-65
2024/02/07 17:09:48;;;;;;;8.40;1.75;;;;;;;;;;5039556;28;20063;-65
2024/02/07 17:12:15;;;;;;;5.82;1.75;;;;;;;;;;5037043;28;20044;-65
2024/02/07 17:14:45;;;;;;;9.00;1.48;;;;;;;;;;5035405;28;20147;-65
2024/02/07 17:17:12;;;;;;;6.40;1.48;;;;;;;;;;5052659;28;20060;-65
2024/02/07 17:19:38;;;;;;;7.07;1.73;;;;;;;;;;5008890;28;20048;-65
2024/02/07 17:22:05;;;;;;;11.98;2.08;;;;;;;;;;5033458;28;20052;-64
2024/02/07 17:24:34;;;;;;;26.23;10.93;;;;;;;;;;5035115;28;20044;-66
2024/02/07 17:27:03;;;;;;;16.15;4.65;;;;;;;;;;5055255;28;20066;-67
2024/02/07 17:29:30;;;;;;;11.05;2.30;;;;;;;;;;4988812;28;20060;-66
2024/02/07 17:31:58;;;;;;;9.65;2.10;;;;;;;;;;5048267;28;20064;-67
2024/02/07 17:34:24;;;;;;;19.33;2.67;;;;;;;;;;5037473;28;20178;-64
2024/02/07 17:36:51;;;;;;;15.10;4.35;;;;;;;;;;5052976;28;20086;-66
2024/02/07 17:39:21;;;;;;;23.85;8.77;;;;;;;;;;5062257;28;20079;-66
2024/02/07 17:41:49;;;;;;;26.50;10.60;;;;;;;;;;5073090;28;20569;-65
2024/02/07 17:44:17;;;;;;;15.60;5.82;;;;;;;;;;5074789;28;20060;-67
2024/02/07 17:46:44;;;;;;;15.38;4.40;;;;;;;;;;5067638;28;20154;-65
2024/02/07 17:49:12;;;;;;;29.58;9.40;;;;;;;;;;5050222;28;20281;-65
2024/02/07 17:51:43;;;;;;;20.70;5.22;;;;;;;;;;5066167;27;20055;-65
2024/02/07 17:54:09;;;;;;;21.52;8.07;;;;;;;;;;5073149;28;20056;-65
2024/02/07 17:56:36;;;;;;;25.63;9.30;;;;;;;;;;5070370;28;20239;-65
2024/02/07 17:59:07;;;;;;;18.08;7.35;;;;;;;;;;5050088;28;20057;-65
2024/02/07 18:01:36;;;;;;;29.55;12.07;;;;;;;;;;5063742;28;20145;-64
2024/02/07 18:04:04;;;;;;;15.32;5.00;;;;;;;;;;5086448;28;20055;-65
2024/02/07 18:06:33;;;;;;;13.50;2.85;;;;;;;;;;5070037;28;20052;-66
2024/02/07 18:09:00;;;;;;;10.07;2.47;;;;;;;;;;5069672;28;20056;-65
2024/02/07 18:11:28;;;;;;;8.13;2.17;;;;;;;;;;5067268;28;20140;-65
2024/02/07 18:13:55;;;;;;;13.18;2.65;;;;;;;;;;5073123;28;20048;-67
2024/02/07 18:16:26;;;;;;;14.63;2.55;;;;;;;;;;5074108;28;20239;-64
2024/02/07 18:18:53;;;;;;;13.75;2.90;;;;;;;;;;5054595;28;20048;-65
2024/02/07 18:21:22;;;;;;;11.85;2.80;;;;;;;;;;5069827;28;20066;-64
2024/02/07 18:23:50;;;;;;;8.13;2.80;;;;;;;;;;5068247;28;20075;-65
2024/02/07 18:26:17;;;;;;;21.50;5.47;;;;;;;;;;5074310;28;20044;-64
2024/02/07 18:28:44;;;;;;;23.17;5.07;;;;;;;;;;5070719;28;20052;-64
2024/02/07 18:31:11;;;;;;;24.27;3.75;;;;;;;;;;5073028;28;20059;-64
2024/02/07 18:33:40;;;;;;;18.02;4.50;;;;;;;;;;5071763;28;20043;-65
2024/02/07 18:36:13;;;;;;;14.82;3.75;;;;;;;;;;5073979;28;20052;-64
2024/02/07 18:38:38;;;;;;;14.38;3.83;;;;;;;;;;5039014;28;20071;-64
2024/02/07 18:41:08;;;;;;;17.45;4.10;;;;;;;;;;5070136;28;20173;-64
2024/02/07 18:43:34;;;;;;;15.90;3.47;;;;;;;;;;5066055;28;20045;-64
2024/02/07 18:46:01;;;;;;;12.07;2.97;;;;;;;;;;5070533;28;20138;-64
2024/02/07 18:48:28;;;;;;;11.52;3.35;;;;;;;;;;5071725;28;20171;-64
2024/02/07 18:50:56;;;;;;;21.63;3.97;;;;;;;;;;5069684;28;20224;-64
2024/02/07 18:53:24;;;;;;;13.90;3.60;;;;;;;;;;5068227;28;20205;-66
2024/02/07 18:55:59;;;;;;;15.13;3.60;;;;;;;;;;5078366;28;20056;-64
2024/02/07 18:58:27;;;;;;;15.70;3.25;;;;;;;;;;5049984;28;20341;-65
2024/02/07 19:00:54;;;;;;;12.80;3.22;;;;;;;;;;5072690;28;20059;-64
2024/02/07 19:03:24;;;;;;;16.73;3.50;;;;;;;;;;5072027;28;20048;-65
2024/02/07 19:05:51;;;;;;;12.25;3.30;;;;;;;;;;5074691;28;20054;-64
2024/02/07 19:08:23;;;;;;;11.95;3.38;;;;;;;;;;5063093;28;20174;-65
2024/02/07 19:10:49;;;;;;;11.60;3.30;;;;;;;;;;5074956;28;20060;-65
2024/02/07 19:13:24;;;;;;;11.07;3.13;;;;;;;;;;5076596;28;20124;-64
2024/02/07 19:15:51;;;;;;;13.25;3.30;;;;;;;;;;5076112;28;20063;-65
2024/02/07 19:18:18;;;;;;;12.20;3.20;;;;;;;;;;5068136;28;20070;-65
2024/02/07 19:20:45;;;;;;;12.85;3.55;;;;;;;;;;5075094;28;20161;-65
2024/02/07 19:23:12;;;;;;;13.10;4.35;;;;;;;;;;5076111;28;20052;-65
2024/02/07 19:25:40;;;;;;;13.43;5.07;;;;;;;;;;5071256;28;20036;-64
2024/02/07 19:28:09;;;;;;;21.63;4.60;;;;;;;;;;5066125;28;20082;-65
2024/02/07 19:30:36;;;;;;;13.07;3.40;;;;;;;;;;5073197;28;20048;-66
2024/02/07 19:33:04;;;;;;;16.27;4.68;;;;;;;;;;5076066;28;20339;-65
2024/02/07 19:35:32;;;;;;;11.90;4.03;;;;;;;;;;5072459;28;20056;-67
2024/02/07 19:38:02;;;;;;;14.15;3.60;;;;;;;;;;5074870;28;20071;-64
2024/02/07 19:40:28;;;;;;;10.50;3.33;;;;;;;;;;5054590;28;20113;-66
2024/02/07 19:42:57;;;;;;;13.43;3.33;;;;;;;;;;5074600;28;20052;-66
2024/02/07 19:45:26;;;;;;;12.63;3.28;;;;;;;;;;5071451;28;20048;-65
2024/02/07 19:47:56;;;;;;;16.75;3.53;;;;;;;;;;5071020;28;20078;-66
2024/02/07 19:50:32;;;;;;;9.77;2.42;;;;;;;;;;5023797;28;20057;-64
2024/02/07 19:53:00;;;;;;;7.38;2.58;;;;;;;;;;5039176;28;20052;-65
2024/02/07 19:55:27;;;;;;;16.73;3.40;;;;;;;;;;5030347;28;20051;-66
2024/02/07 19:57:53;;;;;;;12.88;3.17;;;;;;;;;;5043396;28;20056;-65
2024/02/07 20:00:25;;;;;;;13.60;3.10;;;;;;;;;;5032730;28;20305;-65
2024/02/07 20:02:53;;;;;;;12.20;4.20;;;;;;;;;;5026375;28;20167;-65
2024/02/07 20:05:46;;;;;;;14.77;3.85;;;;;;;;;;5064779;28;20056;-64
2024/02/07 20:08:14;;;;;;;14.65;4.05;;;;;;;;;;5033030;28;20052;-64
2024/02/07 20:10:44;;;;;;;13.43;4.60;;;;;;;;;;5087303;28;20111;-65
2024/02/07 20:13:10;;;;;;;16.13;5.03;;;;;;;;;;5078496;28;20052;-65
2024/02/07 20:15:43;;;;;;;19.40;4.40;;;;;;;;;;5067867;28;20059;-64
2024/02/07 20:18:13;;;;;;;16.70;4.32;;;;;;;;;;5056169;28;20048;-64
2024/02/07 20:20:40;;;;;;;19.15;4.30;;;;;;;;;;5044044;28;20047;-64
2024/02/07 20:23:07;;;;;;;17.95;3.97;;;;;;;;;;5074853;28;20052;-64
2024/02/07 20:25:34;;;;;;;10.10;3.88;;;;;;;;;;5072774;28;20054;-66
2024/02/07 20:28:00;;;;;;;13.80;4.35;;;;;;;;;;5073256;28;20056;-66
2024/02/07 20:30:27;;;;;;;15.15;3.80;;;;;;;;;;5013959;28;20052;-66
2024/02/07 20:32:55;;;;;;;14.82;4.18;;;;;;;;;;5050180;28;20147;-66
2024/02/07 20:35:25;;;;;;;12.27;3.97;;;;;;;;;;5047581;28;20080;-66
2024/02/07 20:37:52;;;;;;;13.35;3.97;;;;;;;;;;5025506;28;20044;-66
2024/02/07 20:40:19;;;;;;;12.23;4.15;;;;;;;;;;5040739;28;20108;-67
2024/02/07 20:42:46;;;;;;;13.10;3.90;;;;;;;;;;5049732;28;20112;-66
2024/02/07 20:45:15;;;;;;;14.25;4.07;;;;;;;;;;5055570;28;20063;-66
2024/02/07 20:47:42;;;;;;;14.95;3.90;;;;;;;;;;5068286;28;20042;-66